createdAt,value
2022-10-21T00:05:07.751Z,4.75
2022-10-21T00:12:09.285Z,4.85
2022-10-21T00:19:10.968Z,3.90
2022-10-21T00:26:13.014Z,4.63
2022-10-21T00:33:14.596Z,4.03
2022-10-21T00:40:16.157Z,4.32
2022-10-21T00:47:17.766Z,4.55
2022-10-21T00:54:19.347Z,4.43
2022-10-21T01:01:21.716Z,4.43
2022-10-21T01:08:23.844Z,4.07
2022-10-21T01:15:40.840Z,5.13
2022-10-21T01:23:01.224Z,5.88
2022-10-21T01:30:26.348Z,4.47
2022-10-21T01:37:32.047Z,5.03
2022-10-21T01:45:23.047Z,5.20
2022-10-21T01:52:24.642Z,5.18
2022-10-21T01:59:27.279Z,4.78
2022-10-21T02:06:28.865Z,4.97
2022-10-21T02:13:32.519Z,4.82
2022-10-21T02:20:39.180Z,4.65
2022-10-21T02:27:40.767Z,4.88
2022-10-21T02:34:51.441Z,4.65
2022-10-21T02:41:52.980Z,5.00
2022-10-21T02:48:54.518Z,4.85
2022-10-21T02:55:56.109Z,5.28
2022-10-21T03:02:57.751Z,4.78
2022-10-21T03:09:59.357Z,4.40
2022-10-21T03:17:00.941Z,4.80
2022-10-21T03:24:05.641Z,5.35
2022-10-21T03:31:09.691Z,4.32
2022-10-21T03:38:11.300Z,4.72
2022-10-21T03:45:12.852Z,5.25
2022-10-21T03:52:14.425Z,4.55
2022-10-21T03:59:16.037Z,5.65
2022-10-21T04:06:17.626Z,5.43
2022-10-21T04:13:19.214Z,5.70
2022-10-21T04:20:21.002Z,5.40
2022-10-21T04:27:22.608Z,6.13
2022-10-21T04:34:24.168Z,5.65
2022-10-21T04:41:25.796Z,5.72
2022-10-21T04:48:27.374Z,5.38
2022-10-21T04:55:29.026Z,5.47
2022-10-21T05:02:30.661Z,5.70
2022-10-21T05:09:32.236Z,6.57
2022-10-21T05:16:33.808Z,6.18
2022-10-21T05:23:35.374Z,5.35
2022-10-21T05:30:36.959Z,4.97
2022-10-21T05:37:38.723Z,5.18
2022-10-21T05:44:40.263Z,6.00
2022-10-21T05:51:41.873Z,5.90
2022-10-21T05:58:43.522Z,6.15
2022-10-21T06:05:45.097Z,5.43
2022-10-21T06:12:46.678Z,5.82
2022-10-21T06:19:50.852Z,6.65
2022-10-21T06:26:52.780Z,5.88
2022-10-21T06:33:54.377Z,5.85
2022-10-21T06:41:02.969Z,5.70
2022-10-21T06:48:04.605Z,6.32
2022-10-21T06:55:06.768Z,6.22
2022-10-21T07:02:09.450Z,6.25
2022-10-21T07:09:11.055Z,6.38
2022-10-21T07:16:19.275Z,6.70
2022-10-21T07:23:20.871Z,7.32
2022-10-21T07:30:23.409Z,6.50
2022-10-21T07:37:25.007Z,6.72
2022-10-21T07:44:26.666Z,6.18
2022-10-21T07:51:30.207Z,6.65
2022-10-21T07:58:32.750Z,6.68
2022-10-21T08:05:34.319Z,5.53
2022-10-21T08:12:36.157Z,5.68
2022-10-21T08:19:37.989Z,6.47
2022-10-21T08:26:39.561Z,5.95
2022-10-21T08:33:41.175Z,6.82
2022-10-21T08:40:46.381Z,6.93
2022-10-21T08:47:50.846Z,6.20
2022-10-21T08:54:58.754Z,6.88
2022-10-21T09:02:01.866Z,6.50
2022-10-21T09:09:32.793Z,6.60
2022-10-21T09:17:11.266Z,6.82
2022-10-21T09:24:13.945Z,6.18
2022-10-21T09:31:16.695Z,6.57
2022-10-21T09:38:26.750Z,6.50
2022-10-21T09:45:35.265Z,6.22
2022-10-21T09:52:37.179Z,6.57
2022-10-21T09:59:58.817Z,5.03
2022-10-21T10:07:34.503Z,6.53
2022-10-21T10:14:38.314Z,5.93
2022-10-21T10:21:39.852Z,6.75
2022-10-21T10:35:49.588Z,6.55
2022-10-21T10:42:53.116Z,6.53
2022-10-21T10:49:54.688Z,6.80
2022-10-21T10:56:59.655Z,6.78
2022-10-21T11:04:06.296Z,6.30
2022-10-21T11:11:21.460Z,5.97
2022-10-21T11:18:33.912Z,5.93
2022-10-21T11:25:42.661Z,6.32
2022-10-21T11:33:09.107Z,10.02
2022-10-21T11:40:19.576Z,5.85
2022-10-21T11:47:31.260Z,6.65
2022-10-21T11:55:04.474Z,6.80
2022-10-21T12:02:15.892Z,7.95
2022-10-21T12:09:41.277Z,5.65
2022-10-21T12:16:42.920Z,6.15
2022-10-21T12:23:44.538Z,5.80
2022-10-21T12:31:21.502Z,6.32
2022-10-21T12:38:43.375Z,6.13
2022-10-21T12:45:44.950Z,6.63
2022-10-21T12:52:46.555Z,5.95
2022-10-21T12:59:48.140Z,6.10
2022-10-21T13:06:51.298Z,6.18
2022-10-21T13:14:17.554Z,5.72
2022-10-21T13:21:37.525Z,6.20
2022-10-21T13:35:43.468Z,6.35
2022-10-21T13:42:48.097Z,6.18
2022-10-21T13:49:50.978Z,6.18
2022-10-21T13:56:52.620Z,6.57
2022-10-21T14:03:55.581Z,6.65
2022-10-21T14:11:08.125Z,6.72
2022-10-21T14:18:21.630Z,6.22
2022-10-21T14:25:24.962Z,5.70
2022-10-21T14:32:26.834Z,6.20
2022-10-21T14:39:28.429Z,5.85
2022-10-21T14:46:31.264Z,6.85
2022-10-21T14:53:35.012Z,6.55
2022-10-21T15:00:41.356Z,7.00
2022-10-21T15:07:42.955Z,6.28
2022-10-21T15:14:44.515Z,6.10
2022-10-21T15:21:47.502Z,6.15
2022-10-21T15:28:49.183Z,6.05
2022-10-21T15:36:04.691Z,6.22
2022-10-21T15:43:06.275Z,6.30
2022-10-21T15:50:17.279Z,7.30
2022-10-21T15:57:20.390Z,7.00
2022-10-21T16:04:22.518Z,6.65
2022-10-21T16:11:34.717Z,7.40
2022-10-21T16:18:42.999Z,7.03
2022-10-21T16:25:44.688Z,6.40
2022-10-21T16:32:46.345Z,6.72
2022-10-21T16:39:48.068Z,7.40
2022-10-21T16:46:53.577Z,6.78
2022-10-21T16:53:55.141Z,7.75
2022-10-21T17:00:57.342Z,7.22
2022-10-21T17:07:59.909Z,8.15
2022-10-21T17:15:01.599Z,7.82
2022-10-21T17:22:03.251Z,15.80
2022-10-21T17:29:04.830Z,8.43
2022-10-21T17:36:06.572Z,8.10
2022-10-21T17:43:08.217Z,9.40
2022-10-21T17:50:10.305Z,8.48
2022-10-21T17:57:12.127Z,9.40
2022-10-21T18:04:13.890Z,8.80
2022-10-21T18:11:16.485Z,10.80
2022-10-21T18:18:18.721Z,10.70
2022-10-21T18:25:20.354Z,10.25
2022-10-21T18:32:21.962Z,11.82
2022-10-21T18:39:23.605Z,10.63
2022-10-21T18:46:25.174Z,9.88
2022-10-21T18:53:26.756Z,10.27
2022-10-21T19:00:28.431Z,8.93
2022-10-21T19:07:29.991Z,9.95
2022-10-21T19:14:33.769Z,9.95
2022-10-21T19:21:35.523Z,9.88
2022-10-21T19:28:37.241Z,8.57
2022-10-21T19:35:39.076Z,9.65
2022-10-21T19:42:41.863Z,10.10
2022-10-21T19:49:43.642Z,8.95
2022-10-21T19:56:45.197Z,10.30
2022-10-21T20:03:47.922Z,9.13
2022-10-21T20:11:09.766Z,9.40
2022-10-21T20:18:11.357Z,9.38
2022-10-21T20:25:12.919Z,11.18
2022-10-21T20:32:14.514Z,9.70
2022-10-21T20:39:16.138Z,11.75
2022-10-21T20:46:17.949Z,9.57
2022-10-21T20:53:19.608Z,9.35
2022-10-21T21:00:21.167Z,19.38
2022-10-21T21:07:22.723Z,10.38
2022-10-21T21:14:24.320Z,10.80
2022-10-21T21:21:26.842Z,10.38
2022-10-21T21:28:31.551Z,14.25
2022-10-21T21:35:35.648Z,10.23
2022-10-21T21:42:37.269Z,11.13
2022-10-21T21:49:38.822Z,11.20
2022-10-21T21:56:43.218Z,10.57
2022-10-21T22:03:46.227Z,9.82
2022-10-21T22:10:47.886Z,11.25
2022-10-21T22:17:49.793Z,10.00
2022-10-21T22:24:51.376Z,9.43
2022-10-21T22:31:52.912Z,9.55
2022-10-21T22:38:54.526Z,9.95
2022-10-21T22:46:05.042Z,10.73
2022-10-21T22:53:17.973Z,11.05
2022-10-21T23:00:19.566Z,9.85
2022-10-21T23:07:21.157Z,9.13
2022-10-21T23:14:22.802Z,9.77
2022-10-21T23:21:24.422Z,9.77
2022-10-21T23:28:26.023Z,9.40
2022-10-21T23:35:27.777Z,9.02
2022-10-21T23:42:29.335Z,9.57
2022-10-21T23:49:30.920Z,9.82
2022-10-21T23:56:32.522Z,8.38
